sensor_id;sensor_type;location;lat;lon;timestamp;P1;durP1;ratioP1;P2;durP2;ratioP2
68432;SDS011;55412;51.350;17.056;2023-07-13T00:00:49;25.40;;;4.80;;
68432;SDS011;55412;51.350;17.056;2023-07-13T00:03:15;7.93;;;3.63;;
68432;SDS011;55412;51.350;17.056;2023-07-13T00:05:42;6.50;;;3.72;;
68432;SDS011;55412;51.350;17.056;2023-07-13T00:08:08;8.38;;;4.25;;
68432;SDS011;55412;51.350;17.056;2023-07-13T00:10:40;6.78;;;3.53;;
68432;SDS011;55412;51.350;17.056;2023-07-13T00:13:07;8.38;;;3.33;;
68432;SDS011;55412;51.350;17.056;2023-07-13T00:15:37;5.97;;;2.90;;
68432;SDS011;55412;51.350;17.056;2023-07-13T00:18:03;8.23;;;3.55;;
68432;SDS011;55412;51.350;17.056;2023-07-13T00:20:29;5.82;;;2.97;;
68432;SDS011;55412;51.350;17.056;2023-07-13T00:22:56;8.60;;;3.17;;
68432;SDS011;55412;51.350;17.056;2023-07-13T00:25:22;6.47;;;3.40;;
68432;SDS011;55412;51.350;17.056;2023-07-13T00:27:51;9.40;;;3.87;;
68432;SDS011;55412;51.350;17.056;2023-07-13T00:30:17;6.90;;;3.83;;
68432;SDS011;55412;51.350;17.056;2023-07-13T00:32:43;7.38;;;4.13;;
68432;SDS011;55412;51.350;17.056;2023-07-13T00:35:10;5.53;;;3.13;;
68432;SDS011;55412;51.350;17.056;2023-07-13T00:37:39;7.40;;;3.22;;
68432;SDS011;55412;51.350;17.056;2023-07-13T00:40:05;10.00;;;3.60;;
68432;SDS011;55412;51.350;17.056;2023-07-13T00:42:33;6.10;;;3.65;;
68432;SDS011;55412;51.350;17.056;2023-07-13T00:47:46;6.00;;;3.22;;
68432;SDS011;55412;51.350;17.056;2023-07-13T00:50:13;5.82;;;3.25;;
68432;SDS011;55412;51.350;17.056;2023-07-13T00:52:43;5.77;;;3.03;;
68432;SDS011;55412;51.350;17.056;2023-07-13T00:55:12;7.00;;;3.88;;
68432;SDS011;55412;51.350;17.056;2023-07-13T00:57:40;7.22;;;3.38;;
68432;SDS011;55412;51.350;17.056;2023-07-13T01:00:07;7.63;;;3.63;;
68432;SDS011;55412;51.350;17.056;2023-07-13T01:02:37;6.60;;;3.50;;
68432;SDS011;55412;51.350;17.056;2023-07-13T01:05:13;7.67;;;3.80;;
68432;SDS011;55412;51.350;17.056;2023-07-13T01:07:43;8.82;;;3.90;;
68432;SDS011;55412;51.350;17.056;2023-07-13T01:10:14;8.10;;;3.90;;
68432;SDS011;55412;51.350;17.056;2023-07-13T01:12:40;7.28;;;3.05;;
68432;SDS011;55412;51.350;17.056;2023-07-13T01:18:09;7.77;;;3.50;;
68432;SDS011;55412;51.350;17.056;2023-07-13T01:21:04;9.23;;;3.63;;
68432;SDS011;55412;51.350;17.056;2023-07-13T01:23:31;6.70;;;3.75;;
68432;SDS011;55412;51.350;17.056;2023-07-13T01:25:58;6.32;;;3.22;;
68432;SDS011;55412;51.350;17.056;2023-07-13T01:28:25;6.50;;;3.40;;
68432;SDS011;55412;51.350;17.056;2023-07-13T01:30:54;8.37;;;3.27;;
68432;SDS011;55412;51.350;17.056;2023-07-13T01:33:23;5.25;;;3.22;;
68432;SDS011;55412;51.350;17.056;2023-07-13T01:35:54;7.53;;;3.50;;
68432;SDS011;55412;51.350;17.056;2023-07-13T01:38:22;10.18;;;3.13;;
68432;SDS011;55412;51.350;17.056;2023-07-13T01:40:50;7.25;;;4.07;;
68432;SDS011;55412;51.350;17.056;2023-07-13T01:43:17;6.53;;;3.47;;
68432;SDS011;55412;51.350;17.056;2023-07-13T01:45:44;7.75;;;3.78;;
68432;SDS011;55412;51.350;17.056;2023-07-13T01:48:14;5.97;;;3.05;;
68432;SDS011;55412;51.350;17.056;2023-07-13T01:50:41;8.13;;;3.70;;
68432;SDS011;55412;51.350;17.056;2023-07-13T01:53:08;8.75;;;4.03;;
68432;SDS011;55412;51.350;17.056;2023-07-13T01:55:34;7.07;;;3.13;;
68432;SDS011;55412;51.350;17.056;2023-07-13T01:58:02;7.25;;;3.10;;
68432;SDS011;55412;51.350;17.056;2023-07-13T02:00:29;6.97;;;3.92;;
68432;SDS011;55412;51.350;17.056;2023-07-13T02:02:55;8.63;;;3.60;;
68432;SDS011;55412;51.350;17.056;2023-07-13T02:05:22;6.47;;;3.60;;
68432;SDS011;55412;51.350;17.056;2023-07-13T02:07:49;7.43;;;3.97;;
68432;SDS011;55412;51.350;17.056;2023-07-13T02:10:15;10.57;;;3.47;;
68432;SDS011;55412;51.350;17.056;2023-07-13T02:12:42;5.70;;;3.13;;
68432;SDS011;55412;51.350;17.056;2023-07-13T02:15:09;7.97;;;3.83;;
68432;SDS011;55412;51.350;17.056;2023-07-13T02:17:36;8.13;;;3.75;;
68432;SDS011;55412;51.350;17.056;2023-07-13T02:20:03;8.93;;;3.17;;
68432;SDS011;55412;51.350;17.056;2023-07-13T02:22:31;9.95;;;4.30;;
68432;SDS011;55412;51.350;17.056;2023-07-13T02:24:57;8.15;;;3.10;;
68432;SDS011;55412;51.350;17.056;2023-07-13T02:27:23;7.32;;;3.20;;
68432;SDS011;55412;51.350;17.056;2023-07-13T02:29:50;7.70;;;3.90;;
68432;SDS011;55412;51.350;17.056;2023-07-13T02:32:16;5.70;;;3.07;;
68432;SDS011;55412;51.350;17.056;2023-07-13T02:34:43;7.28;;;3.45;;
68432;SDS011;55412;51.350;17.056;2023-07-13T02:37:09;7.07;;;3.50;;
68432;SDS011;55412;51.350;17.056;2023-07-13T02:39:35;9.50;;;3.65;;
68432;SDS011;55412;51.350;17.056;2023-07-13T02:42:02;6.93;;;3.60;;
68432;SDS011;55412;51.350;17.056;2023-07-13T02:44:28;6.60;;;3.63;;
68432;SDS011;55412;51.350;17.056;2023-07-13T02:46:55;5.70;;;2.75;;
68432;SDS011;55412;51.350;17.056;2023-07-13T02:49:21;6.47;;;3.45;;
68432;SDS011;55412;51.350;17.056;2023-07-13T02:51:47;6.63;;;3.85;;
68432;SDS011;55412;51.350;17.056;2023-07-13T02:54:13;8.00;;;3.63;;
68432;SDS011;55412;51.350;17.056;2023-07-13T02:56:40;6.40;;;3.20;;
68432;SDS011;55412;51.350;17.056;2023-07-13T02:59:06;5.38;;;3.00;;
68432;SDS011;55412;51.350;17.056;2023-07-13T03:01:32;7.65;;;3.67;;
68432;SDS011;55412;51.350;17.056;2023-07-13T03:04:00;6.18;;;3.15;;
68432;SDS011;55412;51.350;17.056;2023-07-13T03:06:27;5.50;;;3.00;;
68432;SDS011;55412;51.350;17.056;2023-07-13T03:08:55;6.53;;;2.57;;
68432;SDS011;55412;51.350;17.056;2023-07-13T03:11:22;7.07;;;2.95;;
68432;SDS011;55412;51.350;17.056;2023-07-13T03:13:48;7.43;;;2.92;;
68432;SDS011;55412;51.350;17.056;2023-07-13T03:16:15;7.60;;;2.90;;
68432;SDS011;55412;51.350;17.056;2023-07-13T03:18:41;5.80;;;2.97;;
68432;SDS011;55412;51.350;17.056;2023-07-13T03:21:08;7.07;;;2.73;;
68432;SDS011;55412;51.350;17.056;2023-07-13T03:23:35;6.85;;;3.00;;
68432;SDS011;55412;51.350;17.056;2023-07-13T03:26:05;6.15;;;3.33;;
68432;SDS011;55412;51.350;17.056;2023-07-13T03:28:35;8.82;;;3.13;;
68432;SDS011;55412;51.350;17.056;2023-07-13T03:31:02;8.90;;;3.65;;
68432;SDS011;55412;51.350;17.056;2023-07-13T03:33:33;10.47;;;2.93;;
68432;SDS011;55412;51.350;17.056;2023-07-13T03:35:59;8.20;;;3.28;;
68432;SDS011;55412;51.350;17.056;2023-07-13T03:38:26;7.50;;;3.30;;
68432;SDS011;55412;51.350;17.056;2023-07-13T03:40:55;9.07;;;3.78;;
68432;SDS011;55412;51.350;17.056;2023-07-13T03:43:21;7.25;;;3.40;;
68432;SDS011;55412;51.350;17.056;2023-07-13T03:45:47;9.40;;;3.77;;
68432;SDS011;55412;51.350;17.056;2023-07-13T03:48:14;6.50;;;3.45;;
68432;SDS011;55412;51.350;17.056;2023-07-13T03:50:40;7.53;;;3.63;;
68432;SDS011;55412;51.350;17.056;2023-07-13T03:53:07;7.57;;;3.20;;
68432;SDS011;55412;51.350;17.056;2023-07-13T03:55:33;9.45;;;3.78;;
68432;SDS011;55412;51.350;17.056;2023-07-13T03:58:00;5.83;;;3.27;;
68432;SDS011;55412;51.350;17.056;2023-07-13T04:00:53;8.80;;;2.90;;
68432;SDS011;55412;51.350;17.056;2023-07-13T04:03:20;6.55;;;3.30;;
68432;SDS011;55412;51.350;17.056;2023-07-13T04:05:47;5.88;;;2.58;;
68432;SDS011;55412;51.350;17.056;2023-07-13T04:08:13;6.80;;;3.08;;
68432;SDS011;55412;51.350;17.056;2023-07-13T04:10:40;5.83;;;2.40;;
68432;SDS011;55412;51.350;17.056;2023-07-13T04:13:06;5.93;;;3.30;;
68432;SDS011;55412;51.350;17.056;2023-07-13T04:15:33;7.90;;;3.22;;
68432;SDS011;55412;51.350;17.056;2023-07-13T04:17:59;9.00;;;2.83;;
68432;SDS011;55412;51.350;17.056;2023-07-13T04:20:25;11.85;;;3.00;;
68432;SDS011;55412;51.350;17.056;2023-07-13T04:22:52;6.13;;;3.17;;
68432;SDS011;55412;51.350;17.056;2023-07-13T04:25:18;8.00;;;3.97;;
68432;SDS011;55412;51.350;17.056;2023-07-13T04:27:46;7.00;;;3.45;;
68432;SDS011;55412;51.350;17.056;2023-07-13T04:30:12;9.07;;;3.38;;
68432;SDS011;55412;51.350;17.056;2023-07-13T04:32:38;6.50;;;2.40;;
68432;SDS011;55412;51.350;17.056;2023-07-13T04:35:04;7.83;;;1.90;;
68432;SDS011;55412;51.350;17.056;2023-07-13T04:37:31;5.85;;;1.50;;
68432;SDS011;55412;51.350;17.056;2023-07-13T04:39:57;5.25;;;1.40;;
68432;SDS011;55412;51.350;17.056;2023-07-13T04:42:23;9.93;;;2.03;;
68432;SDS011;55412;51.350;17.056;2023-07-13T04:44:50;7.65;;;2.10;;
68432;SDS011;55412;51.350;17.056;2023-07-13T04:47:20;16.97;;;2.87;;
68432;SDS011;55412;51.350;17.056;2023-07-13T04:49:46;5.78;;;1.98;;
68432;SDS011;55412;51.350;17.056;2023-07-13T04:52:12;6.25;;;1.95;;
68432;SDS011;55412;51.350;17.056;2023-07-13T04:54:38;5.97;;;1.88;;
68432;SDS011;55412;51.350;17.056;2023-07-13T04:57:05;4.55;;;2.03;;
68432;SDS011;55412;51.350;17.056;2023-07-13T04:59:32;9.23;;;1.43;;
68432;SDS011;55412;51.350;17.056;2023-07-13T05:01:58;4.85;;;1.77;;
68432;SDS011;55412;51.350;17.056;2023-07-13T05:04:24;4.57;;;1.52;;
68432;SDS011;55412;51.350;17.056;2023-07-13T05:06:50;5.30;;;1.30;;
68432;SDS011;55412;51.350;17.056;2023-07-13T05:09:17;5.10;;;1.90;;
68432;SDS011;55412;51.350;17.056;2023-07-13T05:11:43;5.23;;;1.80;;
68432;SDS011;55412;51.350;17.056;2023-07-13T05:14:09;3.17;;;1.10;;
68432;SDS011;55412;51.350;17.056;2023-07-13T05:16:35;3.90;;;1.17;;
68432;SDS011;55412;51.350;17.056;2023-07-13T05:19:02;4.45;;;1.35;;
68432;SDS011;55412;51.350;17.056;2023-07-13T05:21:28;4.72;;;1.73;;
68432;SDS011;55412;51.350;17.056;2023-07-13T05:23:54;6.03;;;1.20;;
68432;SDS011;55412;51.350;17.056;2023-07-13T05:26:21;4.65;;;1.83;;
68432;SDS011;55412;51.350;17.056;2023-07-13T05:28:47;4.72;;;1.83;;
68432;SDS011;55412;51.350;17.056;2023-07-13T05:31:13;5.57;;;1.63;;
68432;SDS011;55412;51.350;17.056;2023-07-13T05:33:40;5.15;;;1.83;;
68432;SDS011;55412;51.350;17.056;2023-07-13T05:36:06;5.20;;;2.10;;
68432;SDS011;55412;51.350;17.056;2023-07-13T05:38:33;7.55;;;2.15;;
68432;SDS011;55412;51.350;17.056;2023-07-13T05:41:00;6.15;;;2.85;;
68432;SDS011;55412;51.350;17.056;2023-07-13T05:43:30;3.78;;;1.63;;
68432;SDS011;55412;51.350;17.056;2023-07-13T05:45:56;4.88;;;1.90;;
68432;SDS011;55412;51.350;17.056;2023-07-13T05:48:26;8.47;;;1.90;;
68432;SDS011;55412;51.350;17.056;2023-07-13T05:50:53;6.10;;;1.77;;
68432;SDS011;55412;51.350;17.056;2023-07-13T05:53:20;6.25;;;2.13;;
68432;SDS011;55412;51.350;17.056;2023-07-13T05:55:49;4.30;;;1.73;;
68432;SDS011;55412;51.350;17.056;2023-07-13T05:58:18;4.60;;;1.83;;
68432;SDS011;55412;51.350;17.056;2023-07-13T06:00:45;3.83;;;1.57;;
68432;SDS011;55412;51.350;17.056;2023-07-13T06:03:12;4.57;;;1.88;;
68432;SDS011;55412;51.350;17.056;2023-07-13T06:05:39;3.65;;;1.50;;
68432;SDS011;55412;51.350;17.056;2023-07-13T06:08:07;4.63;;;1.70;;
68432;SDS011;55412;51.350;17.056;2023-07-13T06:10:36;4.80;;;1.50;;
68432;SDS011;55412;51.350;17.056;2023-07-13T06:13:02;4.50;;;2.03;;
68432;SDS011;55412;51.350;17.056;2023-07-13T06:15:29;4.70;;;1.70;;
68432;SDS011;55412;51.350;17.056;2023-07-13T06:17:55;3.75;;;1.85;;
68432;SDS011;55412;51.350;17.056;2023-07-13T06:20:21;5.00;;;2.00;;
68432;SDS011;55412;51.350;17.056;2023-07-13T06:22:47;5.35;;;2.03;;
68432;SDS011;55412;51.350;17.056;2023-07-13T06:25:13;4.27;;;2.07;;
68432;SDS011;55412;51.350;17.056;2023-07-13T06:27:40;3.80;;;1.58;;
68432;SDS011;55412;51.350;17.056;2023-07-13T06:30:06;4.18;;;1.70;;
68432;SDS011;55412;51.350;17.056;2023-07-13T06:32:33;5.10;;;2.30;;
68432;SDS011;55412;51.350;17.056;2023-07-13T06:35:00;4.82;;;2.20;;
68432;SDS011;55412;51.350;17.056;2023-07-13T06:37:26;3.87;;;1.63;;
68432;SDS011;55412;51.350;17.056;2023-07-13T06:39:52;5.65;;;1.88;;
68432;SDS011;55412;51.350;17.056;2023-07-13T06:42:18;4.80;;;2.08;;
68432;SDS011;55412;51.350;17.056;2023-07-13T06:44:45;4.18;;;2.17;;
68432;SDS011;55412;51.350;17.056;2023-07-13T06:47:11;4.28;;;2.20;;
68432;SDS011;55412;51.350;17.056;2023-07-13T06:49:37;4.77;;;2.17;;
68432;SDS011;55412;51.350;17.056;2023-07-13T06:52:04;4.53;;;1.88;;
68432;SDS011;55412;51.350;17.056;2023-07-13T06:54:32;4.70;;;1.88;;
68432;SDS011;55412;51.350;17.056;2023-07-13T06:56:58;3.80;;;1.85;;
68432;SDS011;55412;51.350;17.056;2023-07-13T06:59:24;6.45;;;2.08;;
68432;SDS011;55412;51.350;17.056;2023-07-13T07:01:50;5.63;;;1.70;;
68432;SDS011;55412;51.350;17.056;2023-07-13T07:04:16;3.83;;;1.75;;
68432;SDS011;55412;51.350;17.056;2023-07-13T07:06:43;3.95;;;1.75;;
68432;SDS011;55412;51.350;17.056;2023-07-13T07:09:09;5.22;;;1.48;;
68432;SDS011;55412;51.350;17.056;2023-07-13T07:11:35;5.78;;;1.60;;
68432;SDS011;55412;51.350;17.056;2023-07-13T07:14:01;4.07;;;1.40;;
68432;SDS011;55412;51.350;17.056;2023-07-13T07:16:28;4.28;;;1.55;;
68432;SDS011;55412;51.350;17.056;2023-07-13T07:18:54;4.70;;;1.75;;
68432;SDS011;55412;51.350;17.056;2023-07-13T07:21:21;4.72;;;1.35;;
68432;SDS011;55412;51.350;17.056;2023-07-13T07:23:48;5.00;;;1.33;;
68432;SDS011;55412;51.350;17.056;2023-07-13T07:26:14;3.83;;;1.00;;
68432;SDS011;55412;51.350;17.056;2023-07-13T07:28:40;4.25;;;1.90;;
68432;SDS011;55412;51.350;17.056;2023-07-13T07:31:07;4.93;;;1.42;;
68432;SDS011;55412;51.350;17.056;2023-07-13T07:33:33;5.80;;;1.50;;
68432;SDS011;55412;51.350;17.056;2023-07-13T07:36:00;3.40;;;1.33;;
68432;SDS011;55412;51.350;17.056;2023-07-13T07:38:26;5.40;;;1.73;;
68432;SDS011;55412;51.350;17.056;2023-07-13T07:40:52;4.07;;;1.30;;
68432;SDS011;55412;51.350;17.056;2023-07-13T07:43:19;4.70;;;1.48;;
68432;SDS011;55412;51.350;17.056;2023-07-13T07:45:45;3.78;;;1.40;;
68432;SDS011;55412;51.350;17.056;2023-07-13T07:48:12;4.88;;;1.60;;
68432;SDS011;55412;51.350;17.056;2023-07-13T07:50:38;7.43;;;1.07;;
68432;SDS011;55412;51.350;17.056;2023-07-13T07:53:05;6.53;;;2.13;;
68432;SDS011;55412;51.350;17.056;2023-07-13T07:55:36;3.95;;;1.80;;
68432;SDS011;55412;51.350;17.056;2023-07-13T07:58:02;3.70;;;1.60;;
68432;SDS011;55412;51.350;17.056;2023-07-13T08:00:31;4.53;;;1.70;;
68432;SDS011;55412;51.350;17.056;2023-07-13T08:02:58;6.13;;;2.03;;
68432;SDS011;55412;51.350;17.056;2023-07-13T08:05:25;4.85;;;1.85;;
68432;SDS011;55412;51.350;17.056;2023-07-13T08:07:53;3.80;;;1.80;;
68432;SDS011;55412;51.350;17.056;2023-07-13T08:10:20;6.03;;;1.77;;
68432;SDS011;55412;51.350;17.056;2023-07-13T08:12:47;5.13;;;2.28;;
68432;SDS011;55412;51.350;17.056;2023-07-13T08:15:14;4.70;;;2.00;;
68432;SDS011;55412;51.350;17.056;2023-07-13T08:17:42;4.97;;;1.85;;
68432;SDS011;55412;51.350;17.056;2023-07-13T08:20:08;5.47;;;2.88;;
68432;SDS011;55412;51.350;17.056;2023-07-13T08:22:35;4.30;;;2.35;;
68432;SDS011;55412;51.350;17.056;2023-07-13T08:25:02;4.20;;;2.20;;
68432;SDS011;55412;51.350;17.056;2023-07-13T08:27:28;4.07;;;1.90;;
68432;SDS011;55412;51.350;17.056;2023-07-13T08:29:55;5.47;;;2.20;;
68432;SDS011;55412;51.350;17.056;2023-07-13T08:32:22;4.35;;;2.17;;
68432;SDS011;55412;51.350;17.056;2023-07-13T08:34:49;7.13;;;1.88;;
68432;SDS011;55412;51.350;17.056;2023-07-13T08:37:16;4.70;;;2.42;;
68432;SDS011;55412;51.350;17.056;2023-07-13T08:39:44;5.93;;;2.07;;
68432;SDS011;55412;51.350;17.056;2023-07-13T08:42:37;4.45;;;1.75;;
68432;SDS011;55412;51.350;17.056;2023-07-13T08:45:21;7.75;;;2.65;;
68432;SDS011;55412;51.350;17.056;2023-07-13T08:48:21;4.00;;;2.22;;
68432;SDS011;55412;51.350;17.056;2023-07-13T08:50:59;4.57;;;2.13;;
68432;SDS011;55412;51.350;17.056;2023-07-13T08:53:47;6.47;;;2.10;;
68432;SDS011;55412;51.350;17.056;2023-07-13T08:56:18;3.63;;;1.85;;
68432;SDS011;55412;51.350;17.056;2023-07-13T08:59:00;4.47;;;2.17;;
68432;SDS011;55412;51.350;17.056;2023-07-13T09:04:49;4.60;;;1.85;;
68432;SDS011;55412;51.350;17.056;2023-07-13T09:15:54;3.50;;;1.88;;
68432;SDS011;55412;51.350;17.056;2023-07-13T09:18:35;4.20;;;2.10;;
68432;SDS011;55412;51.350;17.056;2023-07-13T09:21:17;3.93;;;1.20;;
68432;SDS011;55412;51.350;17.056;2023-07-13T09:24:41;4.05;;;1.50;;
68432;SDS011;55412;51.350;17.056;2023-07-13T09:26:57;3.80;;;1.90;;
68432;SDS011;55412;51.350;17.056;2023-07-13T09:29:34;3.03;;;1.02;;
68432;SDS011;55412;51.350;17.056;2023-07-13T09:32:04;3.78;;;1.77;;
68432;SDS011;55412;51.350;17.056;2023-07-13T09:34:35;3.93;;;1.10;;
68432;SDS011;55412;51.350;17.056;2023-07-13T09:37:02;3.42;;;1.23;;
68432;SDS011;55412;51.350;17.056;2023-07-13T09:39:31;3.70;;;1.30;;
68432;SDS011;55412;51.350;17.056;2023-07-13T09:42:16;3.85;;;1.30;;
68432;SDS011;55412;51.350;17.056;2023-07-13T09:44:57;6.15;;;1.52;;
68432;SDS011;55412;51.350;17.056;2023-07-13T09:47:28;3.57;;;1.70;;
68432;SDS011;55412;51.350;17.056;2023-07-13T09:49:59;4.05;;;1.85;;
68432;SDS011;55412;51.350;17.056;2023-07-13T09:52:42;4.68;;;1.90;;
68432;SDS011;55412;51.350;17.056;2023-07-13T09:58:04;3.83;;;1.83;;
68432;SDS011;55412;51.350;17.056;2023-07-13T10:00:56;3.53;;;1.30;;
68432;SDS011;55412;51.350;17.056;2023-07-13T10:03:30;3.40;;;1.02;;
68432;SDS011;55412;51.350;17.056;2023-07-13T10:06:11;4.10;;;1.60;;
68432;SDS011;55412;51.350;17.056;2023-07-13T10:08:48;4.00;;;1.20;;
68432;SDS011;55412;51.350;17.056;2023-07-13T10:11:19;6.13;;;1.67;;
68432;SDS011;55412;51.350;17.056;2023-07-13T10:13:53;3.93;;;1.57;;
68432;SDS011;55412;51.350;17.056;2023-07-13T10:16:34;5.88;;;1.85;;
68432;SDS011;55412;51.350;17.056;2023-07-13T10:19:03;4.70;;;1.90;;
68432;SDS011;55412;51.350;17.056;2023-07-13T10:21:45;5.10;;;1.55;;
68432;SDS011;55412;51.350;17.056;2023-07-13T10:24:27;3.80;;;1.45;;
68432;SDS011;55412;51.350;17.056;2023-07-13T10:27:00;4.30;;;1.70;;
68432;SDS011;55412;51.350;17.056;2023-07-13T10:29:37;6.97;;;1.88;;
68432;SDS011;55412;51.350;17.056;2023-07-13T10:32:39;5.07;;;2.03;;
68432;SDS011;55412;51.350;17.056;2023-07-13T10:35:09;3.90;;;1.50;;
68432;SDS011;55412;51.350;17.056;2023-07-13T10:38:02;4.78;;;1.60;;
68432;SDS011;55412;51.350;17.056;2023-07-13T10:40:34;3.77;;;1.50;;
68432;SDS011;55412;51.350;17.056;2023-07-13T10:43:17;4.63;;;1.58;;
68432;SDS011;55412;51.350;17.056;2023-07-13T10:45:52;4.78;;;1.77;;
68432;SDS011;55412;51.350;17.056;2023-07-13T10:48:19;3.75;;;1.20;;
68432;SDS011;55412;51.350;17.056;2023-07-13T10:50:48;3.40;;;1.55;;
68432;SDS011;55412;51.350;17.056;2023-07-13T10:53:22;4.47;;;1.93;;
68432;SDS011;55412;51.350;17.056;2023-07-13T10:56:03;5.22;;;1.27;;
68432;SDS011;55412;51.350;17.056;2023-07-13T10:58:40;3.15;;;1.45;;
68432;SDS011;55412;51.350;17.056;2023-07-13T11:01:09;3.58;;;1.25;;
68432;SDS011;55412;51.350;17.056;2023-07-13T11:09:28;4.20;;;1.65;;
68432;SDS011;55412;51.350;17.056;2023-07-13T11:12:09;3.88;;;1.70;;
68432;SDS011;55412;51.350;17.056;2023-07-13T11:20:35;7.03;;;1.47;;
68432;SDS011;55412;51.350;17.056;2023-07-13T11:25:42;6.00;;;1.92;;
68432;SDS011;55412;51.350;17.056;2023-07-13T11:33:15;4.30;;;1.47;;
68432;SDS011;55412;51.350;17.056;2023-07-13T11:38:33;4.35;;;1.83;;
68432;SDS011;55412;51.350;17.056;2023-07-13T11:41:45;3.95;;;1.20;;
68432;SDS011;55412;51.350;17.056;2023-07-13T11:44:10;3.65;;;1.30;;
68432;SDS011;55412;51.350;17.056;2023-07-13T11:46:44;5.67;;;1.20;;
68432;SDS011;55412;51.350;17.056;2023-07-13T11:49:19;5.63;;;1.50;;
68432;SDS011;55412;51.350;17.056;2023-07-13T11:51:48;5.10;;;1.70;;
68432;SDS011;55412;51.350;17.056;2023-07-13T11:54:27;4.10;;;0.95;;
68432;SDS011;55412;51.350;17.056;2023-07-13T11:57:23;3.55;;;1.70;;
68432;SDS011;55412;51.350;17.056;2023-07-13T12:00:00;3.40;;;1.10;;
68432;SDS011;55412;51.350;17.056;2023-07-13T12:02:36;3.75;;;1.55;;
68432;SDS011;55412;51.350;17.056;2023-07-13T12:05:09;5.18;;;1.80;;
68432;SDS011;55412;51.350;17.056;2023-07-13T12:07:39;4.07;;;1.45;;
68432;SDS011;55412;51.350;17.056;2023-07-13T12:12:40;4.37;;;1.40;;
68432;SDS011;55412;51.350;17.056;2023-07-13T12:15:22;5.88;;;1.92;;
68432;SDS011;55412;51.350;17.056;2023-07-13T12:17:54;4.28;;;2.10;;
68432;SDS011;55412;51.350;17.056;2023-07-13T12:20:26;5.10;;;1.52;;
68432;SDS011;55412;51.350;17.056;2023-07-13T12:22:59;3.53;;;1.15;;
68432;SDS011;55412;51.350;17.056;2023-07-13T12:25:27;4.10;;;1.33;;
68432;SDS011;55412;51.350;17.056;2023-07-13T12:27:55;4.22;;;1.10;;
68432;SDS011;55412;51.350;17.056;2023-07-13T12:33:16;5.68;;;1.88;;
68432;SDS011;55412;51.350;17.056;2023-07-13T12:35:45;3.80;;;2.03;;
68432;SDS011;55412;51.350;17.056;2023-07-13T12:38:17;8.13;;;1.60;;
68432;SDS011;55412;51.350;17.056;2023-07-13T12:40:48;5.75;;;1.23;;
68432;SDS011;55412;51.350;17.056;2023-07-13T12:43:16;6.82;;;2.10;;
68432;SDS011;55412;51.350;17.056;2023-07-13T12:45:58;7.15;;;1.42;;
68432;SDS011;55412;51.350;17.056;2023-07-13T12:48:28;5.47;;;2.00;;
68432;SDS011;55412;51.350;17.056;2023-07-13T12:50:55;5.53;;;1.53;;
68432;SDS011;55412;51.350;17.056;2023-07-13T12:53:22;3.90;;;1.30;;
68432;SDS011;55412;51.350;17.056;2023-07-13T12:55:54;4.10;;;1.73;;
68432;SDS011;55412;51.350;17.056;2023-07-13T13:01:09;4.47;;;1.35;;
68432;SDS011;55412;51.350;17.056;2023-07-13T13:03:39;5.40;;;1.30;;
68432;SDS011;55412;51.350;17.056;2023-07-13T13:08:46;4.85;;;1.63;;
68432;SDS011;55412;51.350;17.056;2023-07-13T13:11:17;4.10;;;1.75;;
68432;SDS011;55412;51.350;17.056;2023-07-13T13:13:44;4.70;;;1.58;;
68432;SDS011;55412;51.350;17.056;2023-07-13T13:16:17;6.33;;;1.33;;
68432;SDS011;55412;51.350;17.056;2023-07-13T13:18:48;4.90;;;1.50;;
68432;SDS011;55412;51.350;17.056;2023-07-13T13:21:16;4.05;;;1.63;;
68432;SDS011;55412;51.350;17.056;2023-07-13T13:23:43;3.75;;;1.55;;
68432;SDS011;55412;51.350;17.056;2023-07-13T13:26:11;3.80;;;1.38;;
68432;SDS011;55412;51.350;17.056;2023-07-13T13:28:43;4.20;;;1.03;;
68432;SDS011;55412;51.350;17.056;2023-07-13T13:31:11;4.47;;;1.45;;
68432;SDS011;55412;51.350;17.056;2023-07-13T13:33:39;3.53;;;1.30;;
68432;SDS011;55412;51.350;17.056;2023-07-13T13:36:14;4.38;;;1.20;;
68432;SDS011;55412;51.350;17.056;2023-07-13T13:38:47;3.95;;;1.60;;
68432;SDS011;55412;51.350;17.056;2023-07-13T13:41:14;4.40;;;1.07;;
68432;SDS011;55412;51.350;17.056;2023-07-13T13:43:42;5.07;;;1.20;;
68432;SDS011;55412;51.350;17.056;2023-07-13T13:46:21;2.90;;;1.45;;
68432;SDS011;55412;51.350;17.056;2023-07-13T13:48:54;3.33;;;1.23;;
68432;SDS011;55412;51.350;17.056;2023-07-13T13:51:22;4.80;;;1.40;;
68432;SDS011;55412;51.350;17.056;2023-07-13T13:53:50;3.27;;;0.87;;
68432;SDS011;55412;51.350;17.056;2023-07-13T13:56:17;4.80;;;1.15;;
68432;SDS011;55412;51.350;17.056;2023-07-13T13:58:45;3.78;;;1.25;;
68432;SDS011;55412;51.350;17.056;2023-07-13T14:01:13;3.40;;;1.20;;
68432;SDS011;55412;51.350;17.056;2023-07-13T14:03:45;3.67;;;0.80;;
68432;SDS011;55412;51.350;17.056;2023-07-13T14:06:14;4.20;;;1.10;;
68432;SDS011;55412;51.350;17.056;2023-07-13T14:08:41;3.30;;;1.02;;
68432;SDS011;55412;51.350;17.056;2023-07-13T14:11:12;4.57;;;1.10;;
68432;SDS011;55412;51.350;17.056;2023-07-13T14:13:44;2.75;;;1.00;;
68432;SDS011;55412;51.350;17.056;2023-07-13T14:16:17;5.10;;;1.02;;
68432;SDS011;55412;51.350;17.056;2023-07-13T14:18:46;5.10;;;1.43;;
68432;SDS011;55412;51.350;17.056;2023-07-13T14:21:17;3.60;;;1.05;;
68432;SDS011;55412;51.350;17.056;2023-07-13T14:23:47;4.53;;;1.38;;
68432;SDS011;55412;51.350;17.056;2023-07-13T14:26:16;3.60;;;1.30;;
68432;SDS011;55412;51.350;17.056;2023-07-13T14:28:47;3.13;;;1.35;;
68432;SDS011;55412;51.350;17.056;2023-07-13T14:31:16;4.40;;;1.37;;
68432;SDS011;55412;51.350;17.056;2023-07-13T14:33:45;5.07;;;1.27;;
68432;SDS011;55412;51.350;17.056;2023-07-13T14:36:17;5.22;;;1.20;;
68432;SDS011;55412;51.350;17.056;2023-07-13T14:38:51;4.18;;;1.40;;
68432;SDS011;55412;51.350;17.056;2023-07-13T14:41:18;3.53;;;1.00;;
68432;SDS011;55412;51.350;17.056;2023-07-13T14:43:45;5.30;;;1.03;;
68432;SDS011;55412;51.350;17.056;2023-07-13T14:46:30;6.38;;;1.35;;
68432;SDS011;55412;51.350;17.056;2023-07-13T14:51:54;4.28;;;1.65;;
68432;SDS011;55412;51.350;17.056;2023-07-13T14:54:23;6.45;;;1.90;;
68432;SDS011;55412;51.350;17.056;2023-07-13T14:56:49;4.50;;;1.77;;
68432;SDS011;55412;51.350;17.056;2023-07-13T14:59:15;4.32;;;1.40;;
68432;SDS011;55412;51.350;17.056;2023-07-13T15:01:45;4.07;;;2.05;;
68432;SDS011;55412;51.350;17.056;2023-07-13T15:04:12;4.55;;;1.80;;
68432;SDS011;55412;51.350;17.056;2023-07-13T15:06:53;7.22;;;1.83;;
68432;SDS011;55412;51.350;17.056;2023-07-13T15:09:22;4.53;;;1.70;;
68432;SDS011;55412;51.350;17.056;2023-07-13T15:11:51;4.65;;;1.40;;
68432;SDS011;55412;51.350;17.056;2023-07-13T15:14:20;4.25;;;1.98;;
68432;SDS011;55412;51.350;17.056;2023-07-13T15:16:47;3.83;;;1.67;;
68432;SDS011;55412;51.350;17.056;2023-07-13T15:19:17;4.63;;;1.90;;
68432;SDS011;55412;51.350;17.056;2023-07-13T15:21:46;4.93;;;2.40;;
68432;SDS011;55412;51.350;17.056;2023-07-13T15:24:13;4.28;;;1.95;;
68432;SDS011;55412;51.350;17.056;2023-07-13T15:26:40;4.55;;;2.00;;
68432;SDS011;55412;51.350;17.056;2023-07-13T15:29:10;6.40;;;2.15;;
68432;SDS011;55412;51.350;17.056;2023-07-13T15:31:37;5.18;;;2.10;;
68432;SDS011;55412;51.350;17.056;2023-07-13T15:34:09;6.80;;;2.73;;
68432;SDS011;55412;51.350;17.056;2023-07-13T15:36:40;4.43;;;2.30;;
68432;SDS011;55412;51.350;17.056;2023-07-13T15:39:06;4.68;;;2.13;;
68432;SDS011;55412;51.350;17.056;2023-07-13T15:41:40;5.88;;;2.08;;
68432;SDS011;55412;51.350;17.056;2023-07-13T15:44:20;6.50;;;1.65;;